createdAt,value
2023-04-07T00:02:08.127Z,26.63
2023-04-07T00:04:35.764Z,24.77
2023-04-07T00:07:03.162Z,26.95
2023-04-07T00:09:30.744Z,30.35
2023-04-07T00:11:57.962Z,24.73
2023-04-07T00:14:25.214Z,23.50
2023-04-07T00:16:52.496Z,28.25
2023-04-07T00:19:19.711Z,22.40
2023-04-07T00:21:47.134Z,28.02
2023-04-07T00:24:21.020Z,27.00
2023-04-07T00:26:54.638Z,27.58
2023-04-07T00:29:21.917Z,27.20
2023-04-07T00:31:49.170Z,27.00
2023-04-07T00:34:16.433Z,28.73
2023-04-07T00:36:43.698Z,40.42
2023-04-07T00:39:10.993Z,29.60
2023-04-07T00:41:38.352Z,29.00
2023-04-07T00:44:05.590Z,29.08
2023-04-07T00:46:33.029Z,25.48
2023-04-07T00:49:01.101Z,27.83
2023-04-07T00:51:28.700Z,28.90
2023-04-07T00:53:56.532Z,30.85
2023-04-07T00:56:24.100Z,32.85
2023-04-07T00:58:51.789Z,33.13
2023-04-07T01:01:27.470Z,30.80
2023-04-07T01:04:17.876Z,35.05
2023-04-07T01:06:50.202Z,26.70
2023-04-07T01:09:26.592Z,28.58
2023-04-07T01:11:56.991Z,28.83
2023-04-07T01:14:25.591Z,26.65
2023-04-07T01:17:06.275Z,28.45
2023-04-07T01:19:53.471Z,31.88
2023-04-07T01:22:26.777Z,30.27
2023-04-07T01:25:11.414Z,30.13
2023-04-07T01:28:02.215Z,30.85
2023-04-07T01:30:33.227Z,35.70
2023-04-07T01:33:02.189Z,35.80
2023-04-07T01:35:32.480Z,33.10
2023-04-07T01:38:00.607Z,31.95
2023-04-07T01:40:28.981Z,30.80
2023-04-07T01:42:58.097Z,33.38
2023-04-07T01:45:27.590Z,31.70
2023-04-07T01:47:55.931Z,30.63
2023-04-07T01:50:23.893Z,32.10
2023-04-07T01:52:52.875Z,28.88
2023-04-07T01:55:21.261Z,34.72
2023-04-07T01:57:57.698Z,30.27
2023-04-07T02:00:25.040Z,29.58
2023-04-07T02:02:59.385Z,29.55
2023-04-07T02:05:29.920Z,27.23
2023-04-07T02:08:05.132Z,32.40
2023-04-07T02:10:38.906Z,31.83
2023-04-07T02:13:09.148Z,26.65
2023-04-07T02:15:37.813Z,23.95
2023-04-07T02:18:06.471Z,26.25
2023-04-07T02:20:36.998Z,28.85
2023-04-07T02:23:04.285Z,26.77
2023-04-07T02:25:32.710Z,27.52
2023-04-07T02:28:01.575Z,23.35
2023-04-07T02:30:29.292Z,24.58
2023-04-07T02:32:57.021Z,25.20
2023-04-07T02:35:24.735Z,24.88
2023-04-07T02:37:52.089Z,25.00
2023-04-07T02:40:19.525Z,21.77
2023-04-07T02:42:47.823Z,23.52
2023-04-07T02:45:16.055Z,25.60
2023-04-07T02:47:43.420Z,24.48
2023-04-07T02:50:11.136Z,29.05
2023-04-07T02:52:38.314Z,23.45
2023-04-07T02:55:11.405Z,26.38
2023-04-07T02:57:39.585Z,27.98
2023-04-07T03:00:13.213Z,24.50
2023-04-07T03:03:10.192Z,26.50
2023-04-07T03:05:40.460Z,27.42
2023-04-07T03:08:12.283Z,25.10
2023-04-07T03:10:40.579Z,27.95
2023-04-07T03:13:09.405Z,24.00
2023-04-07T03:15:37.838Z,26.98
2023-04-07T03:18:06.890Z,27.88
2023-04-07T03:20:35.207Z,27.67
2023-04-07T03:23:09.313Z,25.48
2023-04-07T03:25:36.915Z,26.80
2023-04-07T03:28:04.601Z,25.88
2023-04-07T03:30:35.647Z,26.45
2023-04-07T03:33:03.112Z,27.10
2023-04-07T03:35:31.841Z,26.88
2023-04-07T03:37:59.421Z,23.70
2023-04-07T03:40:27.207Z,24.58
2023-04-07T03:42:54.528Z,27.38
2023-04-07T03:45:22.743Z,30.98
2023-04-07T03:47:54.309Z,25.67
2023-04-07T03:50:22.736Z,27.45
2023-04-07T03:53:09.364Z,24.70
2023-04-07T03:55:37.423Z,28.77
2023-04-07T03:58:12.390Z,27.45
2023-04-07T04:00:40.860Z,26.40
2023-04-07T04:03:11.024Z,27.88
2023-04-07T04:05:47.425Z,25.83
2023-04-07T04:08:20.783Z,23.45
2023-04-07T04:10:48.176Z,27.85
2023-04-07T04:13:15.550Z,25.33
2023-04-07T04:15:43.883Z,24.10
2023-04-07T04:18:15.632Z,26.60
2023-04-07T04:20:43.779Z,25.67
2023-04-07T04:23:11.247Z,25.58
2023-04-07T04:25:39.823Z,27.80
2023-04-07T04:28:10.560Z,25.25
2023-04-07T04:30:38.097Z,27.65
2023-04-07T04:33:05.533Z,26.77
2023-04-07T04:36:02.205Z,26.83
2023-04-07T04:38:31.298Z,26.58
2023-04-07T04:41:06.276Z,27.85
2023-04-07T04:43:34.703Z,26.67
2023-04-07T04:46:04.111Z,27.13
2023-04-07T04:48:36.269Z,28.08
2023-04-07T04:51:06.124Z,29.85
2023-04-07T04:53:33.527Z,29.42
2023-04-07T04:56:02.695Z,26.90
2023-04-07T04:58:46.203Z,36.10
2023-04-07T05:01:19.465Z,28.88
2023-04-07T05:03:55.735Z,35.58
2023-04-07T05:06:27.973Z,30.90
2023-04-07T05:08:58.501Z,30.55
2023-04-07T05:11:31.639Z,32.55
2023-04-07T05:13:59.011Z,36.90
2023-04-07T05:16:26.754Z,34.17
2023-04-07T05:18:55.036Z,31.88
2023-04-07T05:21:24.839Z,31.00
2023-04-07T05:23:54.931Z,36.00
2023-04-07T05:26:24.243Z,31.75
2023-04-07T05:28:52.010Z,33.83
2023-04-07T05:31:23.529Z,32.38
2023-04-07T05:33:54.634Z,35.63
2023-04-07T05:36:25.714Z,36.70
2023-04-07T05:38:56.581Z,33.70
2023-04-07T05:41:24.069Z,35.15
2023-04-07T05:43:51.696Z,34.58
2023-04-07T05:46:19.470Z,37.53
2023-04-07T05:48:55.857Z,36.95
2023-04-07T05:51:24.311Z,38.83
2023-04-07T05:53:53.956Z,38.63
2023-04-07T05:56:23.530Z,38.38
2023-04-07T05:58:51.372Z,44.15
2023-04-07T06:01:19.756Z,36.25
2023-04-07T06:03:48.675Z,38.38
2023-04-07T06:06:21.954Z,34.45
2023-04-07T06:08:49.434Z,35.63
2023-04-07T06:11:16.681Z,38.00
2023-04-07T06:13:43.815Z,34.08
2023-04-07T06:16:11.196Z,36.10
2023-04-07T06:18:38.614Z,34.58
2023-04-07T06:21:07.459Z,33.60
2023-04-07T06:23:34.879Z,33.03
2023-04-07T06:26:02.368Z,34.15
2023-04-07T06:28:30.933Z,34.15
2023-04-07T06:31:00.566Z,35.15
2023-04-07T06:33:28.646Z,35.65
2023-04-07T06:35:57.606Z,36.08
2023-04-07T06:38:24.870Z,35.08
2023-04-07T06:40:52.143Z,37.10
2023-04-07T06:43:19.662Z,32.38
2023-04-07T06:46:07.905Z,32.25
2023-04-07T06:48:35.453Z,33.30
2023-04-07T06:51:02.608Z,33.33
2023-04-07T06:53:29.732Z,31.85
2023-04-07T06:56:04.946Z,35.58
2023-04-07T06:58:32.491Z,36.45
2023-04-07T07:01:01.316Z,35.28
2023-04-07T07:03:29.650Z,34.38
2023-04-07T07:05:57.700Z,34.97
2023-04-07T07:08:25.999Z,35.97
2023-04-07T07:10:54.036Z,36.95
2023-04-07T07:13:23.652Z,38.40
2023-04-07T07:15:51.624Z,35.95
2023-04-07T07:18:19.698Z,38.03
2023-04-07T07:20:47.139Z,40.10
2023-04-07T07:23:14.350Z,39.95
2023-04-07T07:25:41.788Z,37.88
2023-04-07T07:28:09.769Z,37.25
2023-04-07T07:30:39.303Z,39.95
2023-04-07T07:33:06.547Z,38.00
2023-04-07T07:35:33.922Z,40.22
2023-04-07T07:38:01.507Z,39.35
2023-04-07T07:40:28.816Z,37.45
2023-04-07T07:42:56.056Z,36.40
2023-04-07T07:45:23.387Z,34.42
2023-04-07T07:47:50.767Z,35.33
2023-04-07T07:50:18.103Z,34.63
2023-04-07T07:52:45.959Z,32.75
2023-04-07T07:55:13.346Z,32.83
2023-04-07T07:57:40.797Z,33.75
2023-04-07T08:00:08.631Z,34.53
2023-04-07T08:02:42.602Z,31.52
2023-04-07T08:05:18.948Z,31.08
2023-04-07T08:07:47.083Z,33.40
2023-04-07T08:10:16.608Z,34.35
2023-04-07T08:12:43.860Z,35.00
2023-04-07T08:15:11.364Z,33.70
2023-04-07T08:17:38.755Z,33.38
2023-04-07T08:20:07.956Z,32.78
2023-04-07T08:22:35.309Z,34.90
2023-04-07T08:25:03.158Z,31.98
2023-04-07T08:27:30.533Z,35.40
2023-04-07T08:30:04.046Z,32.78
2023-04-07T08:32:39.350Z,35.30
2023-04-07T08:35:07.214Z,35.65
2023-04-07T08:37:35.480Z,38.78
2023-04-07T08:40:04.118Z,37.75
2023-04-07T08:42:33.458Z,40.90
2023-04-07T08:45:07.342Z,37.33
2023-04-07T08:47:36.742Z,37.25
2023-04-07T08:50:09.626Z,33.70
2023-04-07T08:52:57.540Z,37.83
2023-04-07T08:55:28.283Z,38.20
2023-04-07T08:57:56.332Z,36.22
2023-04-07T09:00:30.001Z,37.30
2023-04-07T09:02:57.412Z,39.03
2023-04-07T09:05:25.358Z,40.33
2023-04-07T09:07:52.556Z,37.85
2023-04-07T09:10:19.822Z,35.80
2023-04-07T09:12:47.220Z,38.17
2023-04-07T09:15:14.596Z,37.05
2023-04-07T09:17:42.384Z,38.40
2023-04-07T09:20:10.008Z,37.67
2023-04-07T09:22:48.129Z,37.75
2023-04-07T09:25:34.053Z,36.78
2023-04-07T09:28:05.653Z,34.88
2023-04-07T09:30:35.421Z,36.20
2023-04-07T09:33:04.933Z,34.47
2023-04-07T09:35:35.524Z,36.33
2023-04-07T09:38:03.865Z,33.22
2023-04-07T09:40:31.774Z,34.17
2023-04-07T09:42:59.294Z,34.72
2023-04-07T09:45:34.650Z,33.67
2023-04-07T09:48:19.265Z,33.28
2023-04-07T09:50:49.854Z,51.22
2023-04-07T09:53:20.251Z,31.75
2023-04-07T09:55:48.612Z,32.63
2023-04-07T09:58:16.927Z,29.75
2023-04-07T10:00:45.864Z,29.67
2023-04-07T10:03:14.158Z,32.28
2023-04-07T10:05:42.672Z,28.92
2023-04-07T10:08:10.417Z,31.35
2023-04-07T10:10:43.135Z,32.38
2023-04-07T10:13:10.602Z,27.98
2023-04-07T10:15:38.128Z,29.67
2023-04-07T10:18:07.544Z,31.13
2023-04-07T10:20:37.171Z,30.33
2023-04-07T10:23:32.943Z,29.38
2023-04-07T10:26:01.332Z,32.15
2023-04-07T10:28:30.819Z,31.40
2023-04-07T10:30:59.044Z,32.22
2023-04-07T10:33:47.502Z,30.52
2023-04-07T10:36:15.919Z,28.80
2023-04-07T10:39:03.164Z,28.83
2023-04-07T10:41:37.837Z,29.10
2023-04-07T10:44:06.840Z,28.30
2023-04-07T10:46:57.190Z,29.13
2023-04-07T10:49:24.404Z,27.15
2023-04-07T10:52:13.697Z,27.90
2023-04-07T10:54:42.882Z,28.02
2023-04-07T10:57:14.666Z,25.90
2023-04-07T11:00:12.449Z,27.05
2023-04-07T11:02:40.722Z,26.90
2023-04-07T11:05:08.988Z,27.27
2023-04-07T11:07:47.351Z,26.45
2023-04-07T11:10:16.448Z,26.40
2023-04-07T11:12:43.995Z,29.13
2023-04-07T11:15:22.164Z,27.50
2023-04-07T11:18:18.359Z,23.65
2023-04-07T11:20:51.721Z,22.85
2023-04-07T11:23:21.210Z,24.08
2023-04-07T11:25:49.920Z,21.80
2023-04-07T11:28:17.896Z,26.52
2023-04-07T11:30:56.331Z,22.17
2023-04-07T11:33:26.642Z,25.83
2023-04-07T11:36:01.116Z,25.17
2023-04-07T11:38:38.838Z,22.92
2023-04-07T11:41:15.643Z,25.65
2023-04-07T11:43:43.039Z,27.35
2023-04-07T11:46:16.985Z,26.88
2023-04-07T11:48:45.677Z,18.85
2023-04-07T11:51:22.785Z,25.25
2023-04-07T11:53:57.007Z,22.50
2023-04-07T11:58:53.259Z,22.33
2023-04-07T12:01:21.210Z,19.90
2023-04-07T12:04:00.230Z,22.08
2023-04-07T12:06:35.142Z,21.98
2023-04-07T12:09:03.590Z,23.98
2023-04-07T12:11:31.964Z,22.65
2023-04-07T12:13:59.771Z,22.85
2023-04-07T12:16:27.118Z,21.35
2023-04-07T12:18:54.607Z,28.45
2023-04-07T12:21:21.853Z,24.52
2023-04-07T12:23:49.415Z,30.77
2023-04-07T12:26:16.930Z,23.13
2023-04-07T12:28:44.264Z,25.35
2023-04-07T12:31:11.528Z,26.75
2023-04-07T12:33:38.762Z,25.73
2023-04-07T12:36:06.717Z,28.23
2023-04-07T12:38:34.045Z,24.60
2023-04-07T12:41:03.728Z,23.15
2023-04-07T12:43:31.623Z,20.13
2023-04-07T12:45:58.855Z,20.58
2023-04-07T12:48:27.625Z,23.98
2023-04-07T12:50:55.448Z,23.40
2023-04-07T12:53:22.975Z,21.63
2023-04-07T12:55:50.741Z,24.23
2023-04-07T12:58:19.206Z,23.38
2023-04-07T13:00:49.730Z,22.67
2023-04-07T13:03:17.725Z,21.50
2023-04-07T13:05:45.375Z,21.17
2023-04-07T13:08:12.805Z,21.67
2023-04-07T13:10:40.065Z,21.33
2023-04-07T13:13:07.338Z,22.83
2023-04-07T13:15:34.822Z,23.80
2023-04-07T13:18:02.228Z,23.50
2023-04-07T13:20:30.565Z,23.60
2023-04-07T13:23:07.582Z,25.38
2023-04-07T13:25:37.601Z,24.75
2023-04-07T13:28:05.934Z,22.20
2023-04-07T13:30:33.552Z,23.70
2023-04-07T13:33:01.152Z,22.65
2023-04-07T13:35:30.376Z,28.27
2023-04-07T13:37:57.603Z,24.88
2023-04-07T13:40:24.829Z,27.00
2023-04-07T13:42:52.105Z,25.00
2023-04-07T13:45:19.518Z,27.20
2023-04-07T13:47:47.170Z,27.02
2023-04-07T13:50:14.692Z,24.83
2023-04-07T13:52:41.912Z,25.35
2023-04-07T13:55:09.605Z,28.55
2023-04-07T13:57:36.863Z,22.55
2023-04-07T14:00:04.824Z,26.15
2023-04-07T14:02:36.513Z,27.90
2023-04-07T14:05:04.152Z,28.60
2023-04-07T14:07:31.366Z,24.95
2023-04-07T14:09:58.904Z,25.33
2023-04-07T14:12:26.556Z,25.63
2023-04-07T14:14:54.915Z,23.20
2023-04-07T14:17:22.115Z,26.15
2023-04-07T14:19:49.353Z,24.27
2023-04-07T14:22:16.628Z,25.30
2023-04-07T14:24:43.975Z,24.65
2023-04-07T14:27:11.249Z,24.25
2023-04-07T14:29:38.396Z,26.10
2023-04-07T14:32:05.555Z,24.08
2023-04-07T14:34:32.980Z,25.63
2023-04-07T14:37:00.360Z,22.08
2023-04-07T14:39:27.677Z,28.40
2023-04-07T14:41:54.955Z,28.10
2023-04-07T14:44:22.346Z,24.80
2023-04-07T14:46:49.640Z,21.25
2023-04-07T14:49:17.052Z,18.92
2023-04-07T14:51:44.787Z,19.25
2023-04-07T14:54:12.438Z,20.20
2023-04-07T14:56:39.804Z,20.80
2023-04-07T14:59:07.094Z,20.27
2023-04-07T15:01:34.380Z,19.30
2023-04-07T15:04:02.016Z,20.40
2023-04-07T15:06:29.324Z,22.85
2023-04-07T15:08:56.528Z,21.42
2023-04-07T15:11:24.068Z,24.35
2023-04-07T15:13:51.515Z,23.90
2023-04-07T15:16:18.930Z,21.48
2023-04-07T15:18:47.380Z,25.25
2023-04-07T15:21:15.722Z,25.55
2023-04-07T15:23:43.092Z,23.95
2023-04-07T15:26:10.892Z,22.15
2023-04-07T15:28:38.582Z,23.63
2023-04-07T15:31:09.958Z,21.27
2023-04-07T15:33:38.830Z,20.40
2023-04-07T15:36:08.426Z,22.77
2023-04-07T15:38:36.368Z,23.50
2023-04-07T15:41:03.536Z,22.48
2023-04-07T15:43:30.806Z,22.80
2023-04-07T15:45:58.059Z,30.52
2023-04-07T15:48:25.539Z,22.92
2023-04-07T15:50:54.001Z,21.60
2023-04-07T15:53:21.353Z,21.52
2023-04-07T15:55:48.511Z,23.38
2023-04-07T15:58:15.746Z,25.55
2023-04-07T16:00:43.561Z,24.25
2023-04-07T16:03:10.978Z,24.42
2023-04-07T16:05:38.874Z,23.02
2023-04-07T16:08:06.373Z,25.25
2023-04-07T16:10:33.948Z,22.88
2023-04-07T16:13:01.234Z,20.73
2023-04-07T16:15:39.437Z,20.83
2023-04-07T16:18:10.146Z,22.95
2023-04-07T16:20:37.433Z,21.27
2023-04-07T16:23:04.617Z,18.08
2023-04-07T16:25:32.161Z,19.83
2023-04-07T16:27:59.380Z,20.85
2023-04-07T16:30:26.633Z,18.65
2023-04-07T16:32:53.935Z,20.83
2023-04-07T16:35:21.306Z,20.92
2023-04-07T16:37:50.168Z,23.45
2023-04-07T16:40:17.499Z,37.92
2023-04-07T16:42:44.794Z,29.45
2023-04-07T16:45:12.015Z,31.20
2023-04-07T16:47:39.518Z,34.20
2023-04-07T16:50:07.477Z,31.17
2023-04-07T16:52:34.722Z,32.35
2023-04-07T16:55:02.129Z,25.77
2023-04-07T16:57:30.444Z,25.08
2023-04-07T16:59:57.627Z,23.80
2023-04-07T17:02:25.418Z,23.48
2023-04-07T17:04:53.884Z,29.17
2023-04-07T17:07:21.165Z,24.88
2023-04-07T17:09:48.444Z,26.90
2023-04-07T17:12:16.393Z,28.48
2023-04-07T17:14:43.660Z,23.20
2023-04-07T17:17:11.018Z,25.77
2023-04-07T17:19:38.295Z,28.08
2023-04-07T17:22:05.457Z,26.58
2023-04-07T17:24:32.684Z,25.02
2023-04-07T17:26:59.848Z,24.88
2023-04-07T17:29:29.203Z,50.90
2023-04-07T17:31:56.854Z,40.58
2023-04-07T17:34:24.098Z,28.38
2023-04-07T17:36:51.762Z,29.13
2023-04-07T17:39:19.203Z,32.60
2023-04-07T17:41:47.697Z,34.50
2023-04-07T17:44:15.724Z,38.50
2023-04-07T17:46:43.254Z,35.40
2023-04-07T17:49:10.610Z,36.63
2023-04-07T17:51:37.931Z,33.08
2023-04-07T17:54:05.246Z,35.90
2023-04-07T17:56:32.885Z,36.92
2023-04-07T17:59:01.296Z,46.50
2023-04-07T18:01:28.598Z,44.10
2023-04-07T18:03:55.965Z,47.05
2023-04-07T18:06:23.535Z,38.00
2023-04-07T18:08:50.881Z,47.72
2023-04-07T18:11:18.807Z,46.97
2023-04-07T18:13:46.340Z,43.30
2023-04-07T18:16:19.268Z,48.33
2023-04-07T18:18:48.867Z,39.28
2023-04-07T18:21:16.302Z,35.95
2023-04-07T18:23:43.548Z,31.27
2023-04-07T18:26:12.437Z,31.83
2023-04-07T18:28:42.878Z,35.13
2023-04-07T18:31:11.083Z,35.03
2023-04-07T18:33:38.472Z,40.10
2023-04-07T18:36:08.011Z,41.72
2023-04-07T18:38:36.489Z,40.13
2023-04-07T18:41:06.159Z,50.55
2023-04-07T18:43:33.520Z,49.75
2023-04-07T18:46:00.997Z,51.53
2023-04-07T18:48:28.602Z,61.00
2023-04-07T18:50:56.651Z,63.40
2023-04-07T18:53:26.015Z,59.38
2023-04-07T18:55:53.415Z,68.45
2023-04-07T18:58:21.101Z,56.10
2023-04-07T19:00:53.465Z,56.15
2023-04-07T19:03:21.796Z,50.55
2023-04-07T19:05:52.279Z,58.15
2023-04-07T19:08:20.038Z,53.90
2023-04-07T19:10:47.773Z,58.45
2023-04-07T19:13:17.888Z,61.60
2023-04-07T19:15:46.561Z,57.63
2023-04-07T19:18:14.017Z,56.00
2023-04-07T19:20:41.412Z,55.35
2023-04-07T19:23:08.956Z,47.65
2023-04-07T19:25:36.225Z,44.13
2023-04-07T19:28:03.561Z,49.05
2023-04-07T19:30:30.982Z,52.25
2023-04-07T19:32:58.269Z,58.35
2023-04-07T19:35:25.704Z,52.58
2023-04-07T19:37:53.739Z,62.08
2023-04-07T19:40:23.677Z,61.10
2023-04-07T19:42:51.110Z,62.28
2023-04-07T19:45:19.034Z,63.95
2023-04-07T19:47:47.265Z,60.75
2023-04-07T19:50:14.699Z,54.50
2023-04-07T19:52:45.286Z,55.47
2023-04-07T19:55:13.565Z,55.88
2023-04-07T19:57:41.245Z,48.67
2023-04-07T20:00:09.268Z,57.38
2023-04-07T20:02:37.500Z,57.30
2023-04-07T20:05:05.277Z,60.00
2023-04-07T20:07:33.515Z,53.65
2023-04-07T20:10:01.246Z,58.53
2023-04-07T20:12:28.491Z,73.18
2023-04-07T20:14:55.935Z,66.20
2023-04-07T20:17:23.656Z,80.10
2023-04-07T20:19:54.578Z,72.00
2023-04-07T20:22:22.923Z,67.60
2023-04-07T20:24:50.153Z,69.95
2023-04-07T20:27:18.382Z,70.32
2023-04-07T20:29:45.666Z,69.43
2023-04-07T20:32:13.008Z,61.42
2023-04-07T20:34:40.323Z,57.97
2023-04-07T20:37:07.611Z,57.53
2023-04-07T20:39:34.863Z,54.53
2023-04-07T20:42:03.156Z,47.67
2023-04-07T20:44:31.457Z,51.13
2023-04-07T20:46:58.681Z,44.15
2023-04-07T20:49:25.904Z,45.47
2023-04-07T20:51:53.126Z,44.85
2023-04-07T20:54:20.471Z,43.42
2023-04-07T20:56:47.779Z,42.80
2023-04-07T20:59:15.106Z,46.90
2023-04-07T21:01:42.335Z,43.70
2023-04-07T21:04:13.064Z,46.50
2023-04-07T21:06:42.153Z,44.08
2023-04-07T21:09:09.901Z,52.38
2023-04-07T21:11:37.325Z,45.47
2023-04-07T21:14:05.355Z,46.95
2023-04-07T21:16:32.609Z,50.53
2023-04-07T21:18:59.825Z,52.35
2023-04-07T21:21:27.719Z,63.03
2023-04-07T21:23:54.888Z,52.80
2023-04-07T21:26:22.317Z,62.75
2023-04-07T21:28:50.962Z,84.20
2023-04-07T21:31:24.517Z,52.63
2023-04-07T21:33:52.872Z,62.38
2023-04-07T21:36:20.133Z,58.95
2023-04-07T21:38:48.042Z,48.08
2023-04-07T21:41:15.561Z,48.03
2023-04-07T21:43:42.797Z,47.17
2023-04-07T21:46:10.143Z,43.08
2023-04-07T21:48:37.476Z,46.35
2023-04-07T21:51:04.786Z,49.65
2023-04-07T21:53:32.432Z,49.83
2023-04-07T21:55:59.689Z,47.63
2023-04-07T21:58:26.885Z,44.30
2023-04-07T22:00:54.291Z,48.45
2023-04-07T22:03:22.286Z,50.28
2023-04-07T22:05:50.033Z,46.47
2023-04-07T22:08:17.535Z,43.92
2023-04-07T22:10:44.809Z,42.67
2023-04-07T22:13:12.013Z,45.90
2023-04-07T22:15:39.215Z,44.20
2023-04-07T22:18:07.074Z,47.60
2023-04-07T22:20:34.339Z,42.08
2023-04-07T22:23:01.462Z,49.78
2023-04-07T22:25:28.710Z,43.28
2023-04-07T22:27:56.938Z,47.97
2023-04-07T22:30:24.670Z,43.92
2023-04-07T22:32:52.205Z,49.63
2023-04-07T22:35:19.690Z,49.35
2023-04-07T22:37:46.978Z,45.83
2023-04-07T22:40:14.203Z,44.10
2023-04-07T22:42:41.476Z,43.42
2023-04-07T22:45:09.404Z,50.58
2023-04-07T22:47:38.561Z,53.17
2023-04-07T22:50:06.676Z,50.33
2023-04-07T22:52:33.820Z,53.65
2023-04-07T22:55:01.124Z,49.75
2023-04-07T22:57:28.524Z,57.28
2023-04-07T22:59:55.735Z,49.38
2023-04-07T23:02:23.116Z,54.30
2023-04-07T23:04:51.165Z,56.28
2023-04-07T23:07:18.611Z,56.97
2023-04-07T23:09:46.354Z,52.78
2023-04-07T23:12:13.608Z,56.30
2023-04-07T23:14:40.927Z,51.97
2023-04-07T23:17:08.579Z,58.92
2023-04-07T23:19:35.844Z,55.30
2023-04-07T23:22:03.009Z,53.13
2023-04-07T23:24:30.377Z,55.70
2023-04-07T23:26:57.727Z,60.10
2023-04-07T23:29:25.136Z,56.85
2023-04-07T23:31:52.924Z,52.10
2023-04-07T23:34:20.983Z,58.28
2023-04-07T23:36:48.272Z,57.10
2023-04-07T23:39:15.544Z,51.53
2023-04-07T23:41:42.731Z,53.35
2023-04-07T23:44:09.985Z,57.28
2023-04-07T23:46:37.169Z,56.17
2023-04-07T23:49:04.374Z,53.08
2023-04-07T23:51:32.714Z,58.00
2023-04-07T23:53:59.953Z,56.90
2023-04-07T23:56:29.004Z,60.47
2023-04-07T23:58:56.260Z,60.80
